Agency, Iowa
Current Conditions -  °F | °C
As of 5:53 PM on Sunday 23 Nov 2014 (Local Time) from KOTM Reporting Station
Overcast Overcast  
Wind Chill: 11°   Ceiling: 500
Heat Index: 11°   Visibility: 9mi
Dew Point: 11°   Wind: 7mph
Humidity: 97%   Direction: 300°WNW
Pressure: 29.29"   Gusts: NA
Location:  41°N, 92.31°W
Report Text: KOTM 232353Z AUTO 30006KT 9SM OVC005 11/11 A2929 RMK AO2 RAB04E38 CIG 003V009 SLP918 P0000 60020 T01110106 10117 20111 55009
Loading
Personal Weather Stations






























Interactive Weather Map New forecast layout! Learn more

10-Day Weather Forecast

Advertisements
Track Severe Weather on mobile